Time;durP1;ratioP1;P1;durP2;ratioP2;P2;SDS_P1;SDS_P2;PMS_P1;PMS_P2;Temp;Humidity;BMP_temperature;BMP_pressure;BME280_temperature;BME280_humidity;BME280_pressure;Samples;Min_cycle;Max_cycle;Signal;HPM_P1;HPM_P2
2023/09/13 00:01:37;;;;;;;40.25;24.48;;;;;;;;;;5018458;28;20026;-72
2023/09/13 00:04:04;;;;;;;41.92;25.25;;;;;;;;;;5017381;28;20030;-71
2023/09/13 00:06:30;;;;;;;59.22;28.80;;;;;;;;;;5018837;28;20072;-71
2023/09/13 00:08:56;;;;;;;53.50;28.55;;;;;;;;;;5018082;28;20113;-71
2023/09/13 00:11:22;;;;;;;46.38;27.27;;;;;;;;;;5020092;28;20483;-71
2023/09/13 00:13:48;;;;;;;47.35;26.02;;;;;;;;;;5023582;28;20160;-70
2023/09/13 00:16:15;;;;;;;49.90;27.02;;;;;;;;;;5013042;28;20029;-70
2023/09/13 00:18:41;;;;;;;45.17;24.83;;;;;;;;;;5012699;28;20112;-70
2023/09/13 00:21:09;;;;;;;45.42;25.20;;;;;;;;;;5012534;28;20072;-71
2023/09/13 00:23:35;;;;;;;40.17;23.88;;;;;;;;;;5011364;28;20100;-72
2023/09/13 00:26:02;;;;;;;38.28;22.60;;;;;;;;;;5022326;28;20055;-71
2023/09/13 00:28:28;;;;;;;39.20;22.42;;;;;;;;;;5020193;28;20398;-71
2023/09/13 00:30:54;;;;;;;41.92;23.90;;;;;;;;;;5014358;28;20045;-71
2023/09/13 00:33:20;;;;;;;41.28;23.77;;;;;;;;;;5014628;28;20051;-71
2023/09/13 00:35:46;;;;;;;44.50;23.92;;;;;;;;;;5014147;28;20030;-70
2023/09/13 00:38:12;;;;;;;37.40;23.35;;;;;;;;;;5018648;28;20034;-70
2023/09/13 00:40:39;;;;;;;40.45;25.27;;;;;;;;;;5013711;28;20040;-70
2023/09/13 00:43:05;;;;;;;50.47;25.58;;;;;;;;;;5017552;28;20037;-71
2023/09/13 00:45:34;;;;;;;49.85;26.45;;;;;;;;;;5029465;28;20469;-71
2023/09/13 00:48:00;;;;;;;49.03;25.65;;;;;;;;;;5011901;28;20029;-71
2023/09/13 00:50:27;;;;;;;51.15;25.48;;;;;;;;;;5020113;28;20060;-71
2023/09/13 00:52:53;;;;;;;48.55;26.13;;;;;;;;;;5012715;28;20041;-70
2023/09/13 00:55:20;;;;;;;51.97;27.08;;;;;;;;;;5012328;28;20392;-70
2023/09/13 00:57:48;;;;;;;59.25;28.48;;;;;;;;;;5021537;28;20048;-71
2023/09/13 01:00:14;;;;;;;66.25;29.30;;;;;;;;;;5015749;28;20032;-70
2023/09/13 01:02:41;;;;;;;48.17;26.33;;;;;;;;;;5016970;28;20108;-70
2023/09/13 01:05:09;;;;;;;70.72;29.63;;;;;;;;;;5020683;28;20029;-71
2023/09/13 01:07:35;;;;;;;49.50;26.02;;;;;;;;;;5014519;28;20030;-70
2023/09/13 01:10:02;;;;;;;58.22;29.80;;;;;;;;;;5013700;28;20207;-70
2023/09/13 01:12:28;;;;;;;59.63;29.45;;;;;;;;;;5009452;28;20030;-71
2023/09/13 01:14:54;;;;;;;63.30;28.70;;;;;;;;;;5018511;28;20475;-71
2023/09/13 01:17:24;;;;;;;81.90;27.02;;;;;;;;;;5016609;28;20072;-71
2023/09/13 01:20:01;;;;;;;62.33;26.33;;;;;;;;;;5012146;28;20112;-71
2023/09/13 01:22:39;;;;;;;47.95;25.30;;;;;;;;;;5018551;28;20030;-71
2023/09/13 01:25:27;;;;;;;55.90;26.30;;;;;;;;;;5021167;28;20029;-71
2023/09/13 01:27:56;;;;;;;59.85;28.02;;;;;;;;;;5035368;28;20034;-71
2023/09/13 01:30:23;;;;;;;54.88;26.50;;;;;;;;;;5017677;28;20056;-71
2023/09/13 01:32:51;;;;;;;53.08;27.13;;;;;;;;;;5011854;28;20022;-72
2023/09/13 01:35:17;;;;;;;55.70;27.65;;;;;;;;;;5013520;28;20112;-72
2023/09/13 01:37:44;;;;;;;45.45;24.67;;;;;;;;;;5013201;28;20042;-72
2023/09/13 01:40:10;;;;;;;61.15;25.90;;;;;;;;;;5022260;28;20030;-71
2023/09/13 01:42:40;;;;;;;56.53;25.73;;;;;;;;;;5022931;28;20106;-71
2023/09/13 01:45:09;;;;;;;47.50;24.30;;;;;;;;;;5011047;28;20380;-71
2023/09/13 01:47:38;;;;;;;48.30;23.63;;;;;;;;;;5029886;28;20672;-72
2023/09/13 01:50:04;;;;;;;44.72;23.08;;;;;;;;;;5016199;28;20274;-72
2023/09/13 01:52:30;;;;;;;55.90;26.17;;;;;;;;;;5029067;28;20045;-70
2023/09/13 01:54:56;;;;;;;51.58;26.52;;;;;;;;;;5014147;28;20515;-71
2023/09/13 01:57:23;;;;;;;57.78;27.05;;;;;;;;;;5006496;28;20057;-71
2023/09/13 01:59:49;;;;;;;58.75;28.75;;;;;;;;;;4999182;28;20098;-71
2023/09/13 02:02:15;;;;;;;60.35;28.42;;;;;;;;;;5025791;28;20030;-71
2023/09/13 02:04:41;;;;;;;66.63;29.88;;;;;;;;;;5012394;28;20021;-71
2023/09/13 02:07:08;;;;;;;60.08;27.58;;;;;;;;;;5020465;28;20041;-71
2023/09/13 02:09:34;;;;;;;66.05;28.25;;;;;;;;;;5017631;28;20026;-70
2023/09/13 02:12:00;;;;;;;76.30;30.00;;;;;;;;;;5007759;28;20083;-70
2023/09/13 02:14:26;;;;;;;69.20;30.65;;;;;;;;;;5005350;28;20046;-71
2023/09/13 02:16:52;;;;;;;58.55;30.15;;;;;;;;;;5000716;28;20053;-71
2023/09/13 02:19:18;;;;;;;55.55;28.15;;;;;;;;;;5013990;28;20033;-72
2023/09/13 02:21:45;;;;;;;61.47;29.92;;;;;;;;;;5008934;28;20034;-71
2023/09/13 02:24:12;;;;;;;61.35;29.48;;;;;;;;;;5009730;28;20030;-70
2023/09/13 02:26:38;;;;;;;59.47;27.55;;;;;;;;;;5007513;28;20192;-71
2023/09/13 02:29:05;;;;;;;66.93;29.48;;;;;;;;;;5010856;28;20034;-72
2023/09/13 02:31:31;;;;;;;76.53;32.80;;;;;;;;;;5009266;28;20034;-72
2023/09/13 02:33:58;;;;;;;72.15;28.60;;;;;;;;;;5019129;28;20503;-70
2023/09/13 02:36:24;;;;;;;70.07;29.42;;;;;;;;;;5013206;28;20424;-70
2023/09/13 02:38:50;;;;;;;58.03;27.65;;;;;;;;;;5017586;28;20219;-70
2023/09/13 02:41:16;;;;;;;68.40;28.30;;;;;;;;;;5001585;28;20061;-70
2023/09/13 02:43:43;;;;;;;45.28;23.60;;;;;;;;;;5016094;28;20037;-71
2023/09/13 02:46:10;;;;;;;65.68;27.80;;;;;;;;;;5026279;28;20042;-71
2023/09/13 02:48:36;;;;;;;59.97;25.67;;;;;;;;;;5025675;28;20048;-71
2023/09/13 02:51:02;;;;;;;60.05;26.40;;;;;;;;;;5022634;28;20032;-71
2023/09/13 02:53:28;;;;;;;52.05;24.42;;;;;;;;;;5026833;28;20065;-71
2023/09/13 02:56:03;;;;;;;71.13;28.23;;;;;;;;;;5010343;28;20034;-72
2023/09/13 02:58:30;;;;;;;63.80;27.38;;;;;;;;;;5010172;28;20042;-71
2023/09/13 03:00:57;;;;;;;71.68;26.95;;;;;;;;;;5007955;28;20069;-72
2023/09/13 03:03:23;;;;;;;61.40;25.00;;;;;;;;;;4997418;28;20040;-72
2023/09/13 03:05:49;;;;;;;73.13;28.98;;;;;;;;;;5030650;28;20025;-72
2023/09/13 03:08:16;;;;;;;80.10;29.92;;;;;;;;;;5024935;28;20549;-71
2023/09/13 03:10:42;;;;;;;71.25;29.95;;;;;;;;;;5023469;28;20065;-70
2023/09/13 03:13:08;;;;;;;94.85;34.25;;;;;;;;;;5029775;28;20111;-71
2023/09/13 03:15:34;;;;;;;98.70;33.10;;;;;;;;;;5020731;28;20034;-70
2023/09/13 03:18:01;;;;;;;95.32;34.55;;;;;;;;;;5023475;28;20034;-72
2023/09/13 03:20:27;;;;;;;80.10;33.10;;;;;;;;;;5010193;28;20398;-72
2023/09/13 03:22:55;;;;;;;91.63;34.65;;;;;;;;;;5017769;28;20161;-72
2023/09/13 03:25:21;;;;;;;77.95;32.85;;;;;;;;;;5030295;28;20041;-72
2023/09/13 03:27:48;;;;;;;76.95;31.77;;;;;;;;;;5021181;28;20029;-71
2023/09/13 03:30:15;;;;;;;69.55;31.65;;;;;;;;;;5022383;28;20406;-73
2023/09/13 03:32:42;;;;;;;87.70;34.65;;;;;;;;;;5015709;28;20084;-71
2023/09/13 03:35:10;;;;;;;89.13;36.25;;;;;;;;;;5023967;28;20046;-72
2023/09/13 03:37:36;;;;;;;89.82;34.88;;;;;;;;;;5003341;28;20062;-73
2023/09/13 03:40:05;;;;;;;97.40;37.20;;;;;;;;;;5008074;28;20033;-71
2023/09/13 03:42:32;;;;;;;97.65;39.03;;;;;;;;;;5006890;28;20488;-71
2023/09/13 03:44:58;;;;;;;109.65;40.13;;;;;;;;;;5005673;28;20037;-72
2023/09/13 03:47:24;;;;;;;109.55;40.90;;;;;;;;;;5017175;28;20037;-72
2023/09/13 03:49:50;;;;;;;91.80;38.88;;;;;;;;;;5011420;28;20033;-72
2023/09/13 03:52:17;;;;;;;103.63;40.35;;;;;;;;;;5015165;28;20065;-72
2023/09/13 03:54:43;;;;;;;102.95;39.30;;;;;;;;;;5010989;28;20117;-72
2023/09/13 03:57:09;;;;;;;89.63;38.05;;;;;;;;;;5008397;28;20034;-72
2023/09/13 03:59:35;;;;;;;90.25;37.75;;;;;;;;;;5015944;28;20407;-72
2023/09/13 04:02:01;;;;;;;93.47;36.78;;;;;;;;;;5026621;28;20067;-71
2023/09/13 04:04:28;;;;;;;110.95;39.83;;;;;;;;;;5026097;28;20041;-71
2023/09/13 04:06:54;;;;;;;146.02;41.95;;;;;;;;;;5013073;28;20191;-72
2023/09/13 04:09:22;;;;;;;110.22;42.72;;;;;;;;;;5026294;28;20478;-71
2023/09/13 04:11:48;;;;;;;136.32;44.53;;;;;;;;;;5028468;28;20499;-72
2023/09/13 04:14:14;;;;;;;149.93;49.47;;;;;;;;;;5027205;28;20038;-72
2023/09/13 04:16:40;;;;;;;163.27;49.78;;;;;;;;;;5016038;28;20036;-71
2023/09/13 04:19:07;;;;;;;168.77;52.00;;;;;;;;;;5020251;28;20173;-71
2023/09/13 04:21:33;;;;;;;188.45;55.45;;;;;;;;;;5016852;28;20061;-72
2023/09/13 04:24:01;;;;;;;205.32;59.05;;;;;;;;;;5020916;28;20041;-71
2023/09/13 04:26:27;;;;;;;211.60;60.97;;;;;;;;;;5028467;28;20030;-71
2023/09/13 04:28:54;;;;;;;208.40;61.60;;;;;;;;;;5026450;28;20124;-71
2023/09/13 04:31:20;;;;;;;207.80;62.05;;;;;;;;;;5014668;28;20068;-71
2023/09/13 04:33:50;;;;;;;208.25;60.00;;;;;;;;;;5018488;28;20034;-73
2023/09/13 04:36:19;;;;;;;219.73;62.42;;;;;;;;;;5022395;28;20026;-71
2023/09/13 04:38:46;;;;;;;232.57;64.43;;;;;;;;;;5025254;28;20149;-71
2023/09/13 04:41:13;;;;;;;207.35;61.95;;;;;;;;;;5027551;28;20116;-72
2023/09/13 04:43:40;;;;;;;226.90;64.15;;;;;;;;;;5023338;28;20343;-72
2023/09/13 04:46:06;;;;;;;238.32;69.28;;;;;;;;;;5019059;28;20038;-72
2023/09/13 04:48:33;;;;;;;231.65;66.82;;;;;;;;;;5009188;28;20053;-71
2023/09/13 04:51:00;;;;;;;231.80;70.72;;;;;;;;;;5016734;28;20036;-71
2023/09/13 04:53:26;;;;;;;269.42;77.07;;;;;;;;;;5033426;28;20487;-71
2023/09/13 04:55:52;;;;;;;263.55;79.05;;;;;;;;;;5024554;28;20032;-71
2023/09/13 04:58:19;;;;;;;259.60;79.60;;;;;;;;;;5026882;28;20037;-71
2023/09/13 05:00:45;;;;;;;264.90;78.88;;;;;;;;;;5021529;28;20124;-71
2023/09/13 05:03:11;;;;;;;266.75;79.75;;;;;;;;;;5027271;28;20029;-71
2023/09/13 05:05:40;;;;;;;271.92;82.25;;;;;;;;;;5016346;28;20038;-71
2023/09/13 05:08:06;;;;;;;264.67;78.50;;;;;;;;;;5005089;28;20145;-71
2023/09/13 05:10:32;;;;;;;267.75;76.45;;;;;;;;;;5008726;28;20491;-71
2023/09/13 05:12:59;;;;;;;265.77;81.15;;;;;;;;;;5007427;28;20041;-71
2023/09/13 05:15:25;;;;;;;263.73;81.38;;;;;;;;;;5008849;28;20041;-71
2023/09/13 05:17:51;;;;;;;258.95;79.38;;;;;;;;;;5003321;28;20160;-71
2023/09/13 05:20:17;;;;;;;263.02;82.70;;;;;;;;;;4998377;28;20380;-70
2023/09/13 05:22:43;;;;;;;273.75;82.50;;;;;;;;;;5009147;28;20369;-71
2023/09/13 05:25:10;;;;;;;60.13;25.88;;;;;;;;;;5007104;28;20370;-70
2023/09/13 05:27:36;;;;;;;17.10;7.13;;;;;;;;;;5008819;28;20048;-71
2023/09/13 05:30:02;;;;;;;12.35;4.93;;;;;;;;;;4988532;28;20041;-70
2023/09/13 05:32:29;;;;;;;15.60;4.50;;;;;;;;;;5009364;28;20033;-70
2023/09/13 05:34:55;;;;;;;12.15;2.88;;;;;;;;;;5012037;28;20048;-69
2023/09/13 05:37:21;;;;;;;9.60;2.72;;;;;;;;;;5008494;28;20326;-70
2023/09/13 05:39:47;;;;;;;5.55;1.90;;;;;;;;;;5007039;28;20033;-70
2023/09/13 05:42:13;;;;;;;6.90;1.88;;;;;;;;;;5012263;28;20484;-71
2023/09/13 05:44:39;;;;;;;6.72;1.75;;;;;;;;;;4999981;28;20492;-70
2023/09/13 05:47:05;;;;;;;4.30;1.77;;;;;;;;;;5009800;28;20054;-72
2023/09/13 05:49:32;;;;;;;4.32;1.40;;;;;;;;;;5015446;28;20364;-69
2023/09/13 05:51:58;;;;;;;6.20;1.40;;;;;;;;;;5013215;28;20402;-70
2023/09/13 05:54:24;;;;;;;3.95;1.30;;;;;;;;;;5011676;28;20042;-69
2023/09/13 05:56:55;;;;;;;6.63;1.75;;;;;;;;;;5015155;28;20048;-70
2023/09/13 05:59:21;;;;;;;8.18;1.83;;;;;;;;;;5015904;28;20052;-71
2023/09/13 06:01:47;;;;;;;5.75;1.63;;;;;;;;;;5007674;28;20033;-68
2023/09/13 06:04:13;;;;;;;5.65;1.98;;;;;;;;;;5009985;28;20052;-69
2023/09/13 06:06:39;;;;;;;4.97;1.77;;;;;;;;;;4995667;28;21253;-69
2023/09/13 06:09:05;;;;;;;3.72;1.20;;;;;;;;;;5008715;28;20039;-70
2023/09/13 06:11:31;;;;;;;5.50;1.50;;;;;;;;;;5012608;28;20076;-69
2023/09/13 06:13:58;;;;;;;3.63;1.27;;;;;;;;;;5001664;28;20093;-70
2023/09/13 06:16:24;;;;;;;2.80;1.13;;;;;;;;;;5007429;28;20057;-69
2023/09/13 06:18:50;;;;;;;4.47;1.67;;;;;;;;;;5008699;28;20088;-70
2023/09/13 06:21:16;;;;;;;6.30;1.63;;;;;;;;;;5007982;28;20034;-70
2023/09/13 06:23:43;;;;;;;4.82;1.60;;;;;;;;;;5009064;28;20104;-70
2023/09/13 06:26:09;;;;;;;4.32;1.73;;;;;;;;;;5006360;28;20104;-69
2023/09/13 06:28:36;;;;;;;5.38;1.85;;;;;;;;;;5008422;28;20050;-69
2023/09/13 06:31:02;;;;;;;5.03;1.60;;;;;;;;;;5007994;28;20038;-69
2023/09/13 06:33:28;;;;;;;4.05;1.60;;;;;;;;;;5008825;28;20402;-68
2023/09/13 06:35:56;;;;;;;3.63;1.85;;;;;;;;;;5008243;28;20848;-69
2023/09/13 06:38:22;;;;;;;4.88;1.85;;;;;;;;;;5008297;28;20041;-69
2023/09/13 06:40:51;;;;;;;7.28;2.33;;;;;;;;;;5006886;28;20418;-70
2023/09/13 06:43:18;;;;;;;5.18;2.17;;;;;;;;;;5007558;28;20037;-70
2023/09/13 06:45:44;;;;;;;6.68;2.20;;;;;;;;;;5003118;28;20492;-69
2023/09/13 06:48:10;;;;;;;6.72;2.50;;;;;;;;;;5008688;28;20042;-69
2023/09/13 06:50:36;;;;;;;8.02;2.10;;;;;;;;;;5007788;28;20137;-70
2023/09/13 06:53:03;;;;;;;5.07;2.05;;;;;;;;;;5009157;28;20105;-69
2023/09/13 06:55:31;;;;;;;7.03;2.45;;;;;;;;;;5009148;28;20041;-70
2023/09/13 06:57:57;;;;;;;6.78;2.63;;;;;;;;;;5007752;28;20120;-69
2023/09/13 07:00:23;;;;;;;8.27;2.72;;;;;;;;;;4993492;28;20031;-70
2023/09/13 07:02:49;;;;;;;7.78;2.80;;;;;;;;;;5008740;28;20049;-69
2023/09/13 07:05:16;;;;;;;6.53;2.00;;;;;;;;;;5008634;28;20038;-69
2023/09/13 07:07:42;;;;;;;12.18;2.47;;;;;;;;;;5010255;28;20053;-69
2023/09/13 07:10:08;;;;;;;5.32;2.10;;;;;;;;;;5012006;28;20046;-69
2023/09/13 07:12:34;;;;;;;9.77;2.40;;;;;;;;;;5012530;28;20042;-69
2023/09/13 07:15:01;;;;;;;8.98;2.50;;;;;;;;;;5009867;28;20479;-69
2023/09/13 07:17:27;;;;;;;8.98;2.38;;;;;;;;;;5008141;28;20129;-69
2023/09/13 07:19:55;;;;;;;4.95;1.98;;;;;;;;;;5004851;28;20030;-69
2023/09/13 07:22:21;;;;;;;7.28;2.13;;;;;;;;;;5008498;28;20487;-69
2023/09/13 07:24:47;;;;;;;8.27;2.33;;;;;;;;;;5009793;28;20041;-69
2023/09/13 07:27:14;;;;;;;7.28;1.98;;;;;;;;;;5009756;28;20112;-69
2023/09/13 07:29:40;;;;;;;5.15;2.00;;;;;;;;;;5011096;28;20438;-68
2023/09/13 07:32:06;;;;;;;5.43;2.25;;;;;;;;;;5010566;28;20042;-69
2023/09/13 07:34:32;;;;;;;6.50;1.80;;;;;;;;;;5010838;28;20399;-69
2023/09/13 07:36:58;;;;;;;4.15;1.65;;;;;;;;;;5011348;28;20041;-69
2023/09/13 07:39:25;;;;;;;10.85;2.22;;;;;;;;;;5010505;28;20030;-68
2023/09/13 07:41:51;;;;;;;6.80;2.00;;;;;;;;;;5010528;28;20084;-70
2023/09/13 07:44:17;;;;;;;9.20;2.10;;;;;;;;;;5011453;28;20083;-70
2023/09/13 07:46:43;;;;;;;7.90;2.03;;;;;;;;;;5010206;28;20042;-68
2023/09/13 07:49:09;;;;;;;4.03;1.67;;;;;;;;;;5011211;28;20065;-69
2023/09/13 07:51:38;;;;;;;6.47;1.80;;;;;;;;;;5008803;28;20383;-69
2023/09/13 07:54:07;;;;;;;5.18;1.95;;;;;;;;;;5010506;28;20030;-68
2023/09/13 07:56:34;;;;;;;4.68;2.25;;;;;;;;;;5011035;28;20038;-68
2023/09/13 07:59:00;;;;;;;6.78;1.90;;;;;;;;;;5010040;28;20026;-69
2023/09/13 08:01:26;;;;;;;6.32;2.03;;;;;;;;;;5001719;28;20172;-70
2023/09/13 08:03:53;;;;;;;5.13;1.85;;;;;;;;;;5008517;28;20029;-68
2023/09/13 08:06:22;;;;;;;8.05;2.13;;;;;;;;;;5008625;28;20105;-70
2023/09/13 08:08:48;;;;;;;5.82;1.90;;;;;;;;;;5010913;28;20100;-68
2023/09/13 08:11:15;;;;;;;7.03;2.30;;;;;;;;;;5010478;28;20112;-71
2023/09/13 08:13:41;;;;;;;4.50;1.80;;;;;;;;;;5010169;28;20038;-69
2023/09/13 08:16:07;;;;;;;9.50;1.75;;;;;;;;;;5008275;28;20040;-69
2023/09/13 08:18:34;;;;;;;8.15;2.30;;;;;;;;;;5009450;28;20053;-69
2023/09/13 08:21:01;;;;;;;5.80;1.92;;;;;;;;;;5006832;28;20092;-69
2023/09/13 08:23:27;;;;;;;4.75;1.83;;;;;;;;;;5011148;28;20124;-69
2023/09/13 08:25:53;;;;;;;6.25;1.77;;;;;;;;;;5010407;28;20030;-69
2023/09/13 08:28:19;;;;;;;10.13;1.75;;;;;;;;;;5009862;28;20407;-69
2023/09/13 08:30:46;;;;;;;5.43;2.10;;;;;;;;;;5002877;28;20034;-68
2023/09/13 08:33:12;;;;;;;6.35;2.17;;;;;;;;;;5009110;28;20034;-69
2023/09/13 08:35:38;;;;;;;6.40;2.55;;;;;;;;;;5007498;28;20487;-69
2023/09/13 08:38:05;;;;;;;7.70;2.20;;;;;;;;;;4998960;28;20062;-68
2023/09/13 08:40:31;;;;;;;5.80;2.47;;;;;;;;;;5019540;28;20026;-68
2023/09/13 08:42:58;;;;;;;6.43;2.40;;;;;;;;;;5007998;28;20439;-68
2023/09/13 08:45:24;;;;;;;7.47;2.00;;;;;;;;;;4989459;28;20042;-68
2023/09/13 08:47:53;;;;;;;4.35;1.50;;;;;;;;;;5009478;28;20076;-69
2023/09/13 08:50:24;;;;;;;5.95;2.35;;;;;;;;;;5008545;28;20124;-70
2023/09/13 08:52:51;;;;;;;7.50;2.92;;;;;;;;;;5010233;28;20415;-69
2023/09/13 08:55:19;;;;;;;9.65;3.30;;;;;;;;;;5009482;28;20128;-69
2023/09/13 08:57:47;;;;;;;4.95;2.40;;;;;;;;;;5008845;28;20034;-69
2023/09/13 09:00:14;;;;;;;10.20;2.65;;;;;;;;;;5007596;28;20041;-68
2023/09/13 09:02:42;;;;;;;5.20;2.22;;;;;;;;;;5007772;28;20030;-69
2023/09/13 09:05:11;;;;;;;6.95;2.10;;;;;;;;;;5009370;28;20360;-69
2023/09/13 09:07:39;;;;;;;6.70;2.30;;;;;;;;;;5008989;28;20045;-68
2023/09/13 09:10:11;;;;;;;4.47;2.10;;;;;;;;;;5009159;28;20034;-68
2023/09/13 09:12:39;;;;;;;6.38;2.33;;;;;;;;;;4994127;28;20392;-68
2023/09/13 09:15:06;;;;;;;7.28;2.50;;;;;;;;;;5006125;28;20029;-68
2023/09/13 09:17:33;;;;;;;13.55;2.88;;;;;;;;;;5001816;28;20081;-69
2023/09/13 09:19:59;;;;;;;6.85;2.20;;;;;;;;;;5007238;28;20177;-69
2023/09/13 09:22:25;;;;;;;8.07;2.30;;;;;;;;;;4993504;28;20117;-69
2023/09/13 09:24:51;;;;;;;9.23;2.30;;;;;;;;;;4998712;28;20041;-69
2023/09/13 09:27:17;;;;;;;5.88;2.28;;;;;;;;;;5010116;28;20062;-68
2023/09/13 09:29:45;;;;;;;6.30;2.22;;;;;;;;;;5007464;28;20030;-69
2023/09/13 09:32:12;;;;;;;7.30;2.28;;;;;;;;;;5008232;28;20037;-69
2023/09/13 09:34:40;;;;;;;5.30;2.20;;;;;;;;;;5009812;28;20022;-69
2023/09/13 09:37:08;;;;;;;6.70;2.45;;;;;;;;;;5009906;28;20029;-70
2023/09/13 09:39:52;;;;;;;7.28;2.45;;;;;;;;;;5007442;28;20041;-70
2023/09/13 09:42:18;;;;;;;9.27;2.55;;;;;;;;;;5006473;28;20506;-69
2023/09/13 09:44:44;;;;;;;8.63;2.50;;;;;;;;;;5009641;28;20030;-70
2023/09/13 09:47:16;;;;;;;6.22;2.80;;;;;;;;;;5008935;28;20050;-71
2023/09/13 09:49:44;;;;;;;8.88;2.50;;;;;;;;;;5008815;28;20108;-70
2023/09/13 09:52:11;;;;;;;6.80;2.33;;;;;;;;;;5005082;28;20034;-69
2023/09/13 09:54:38;;;;;;;8.80;2.90;;;;;;;;;;5004311;28;20027;-69
2023/09/13 09:57:04;;;;;;;7.22;2.65;;;;;;;;;;5004777;28;20974;-68
2023/09/13 09:59:31;;;;;;;7.43;2.60;;;;;;;;;;5007287;28;20030;-69
2023/09/13 10:01:57;;;;;;;7.07;2.28;;;;;;;;;;5004977;28;20348;-69
2023/09/13 10:04:23;;;;;;;8.20;2.67;;;;;;;;;;5007526;28;20204;-69
2023/09/13 10:07:00;;;;;;;8.90;2.38;;;;;;;;;;4996031;28;20039;-69
2023/09/13 10:09:42;;;;;;;10.80;2.55;;;;;;;;;;5008169;28;20499;-68
2023/09/13 10:12:09;;;;;;;5.13;2.10;;;;;;;;;;5006592;28;20034;-69
2023/09/13 10:14:35;;;;;;;7.15;1.80;;;;;;;;;;5008474;28;20396;-69
2023/09/13 10:17:03;;;;;;;3.83;1.65;;;;;;;;;;5008338;28;20371;-70
2023/09/13 10:19:30;;;;;;;9.80;1.60;;;;;;;;;;5005398;28;20057;-70
2023/09/13 10:21:56;;;;;;;5.40;1.60;;;;;;;;;;5005569;28;20068;-69
2023/09/13 10:24:29;;;;;;;6.43;1.73;;;;;;;;;;5002073;28;20045;-69
2023/09/13 10:26:56;;;;;;;6.43;1.65;;;;;;;;;;4999548;28;20030;-68
2023/09/13 10:29:31;;;;;;;4.25;1.75;;;;;;;;;;5008444;28;20026;-69
2023/09/13 10:31:58;;;;;;;4.30;1.20;;;;;;;;;;5004961;28;20025;-68
2023/09/13 10:34:27;;;;;;;4.35;1.40;;;;;;;;;;5005499;28;20049;-69
2023/09/13 10:37:03;;;;;;;3.95;1.40;;;;;;;;;;4998062;28;20131;-70
2023/09/13 10:39:33;;;;;;;5.20;1.67;;;;;;;;;;5008468;28;20030;-69
2023/09/13 10:42:04;;;;;;;6.07;2.30;;;;;;;;;;5007931;28;20105;-69
2023/09/13 10:44:30;;;;;;;7.45;2.20;;;;;;;;;;5011934;28;20440;-69
2023/09/13 10:46:56;;;;;;;10.20;3.00;;;;;;;;;;5007941;28;20038;-69
2023/09/13 10:49:24;;;;;;;8.60;2.33;;;;;;;;;;5010910;28;20113;-68
2023/09/13 10:51:51;;;;;;;11.23;2.70;;;;;;;;;;5010416;28;20080;-69
2023/09/13 10:54:18;;;;;;;13.38;2.80;;;;;;;;;;5009932;28;20026;-70
2023/09/13 10:56:46;;;;;;;11.23;2.80;;;;;;;;;;5011665;28;20101;-69
2023/09/13 10:59:17;;;;;;;15.93;3.55;;;;;;;;;;5011207;28;20045;-68
2023/09/13 11:01:46;;;;;;;12.10;3.20;;;;;;;;;;5009573;28;20037;-68
2023/09/13 11:04:13;;;;;;;10.25;3.03;;;;;;;;;;5008977;28;20038;-68
2023/09/13 11:06:40;;;;;;;6.93;3.10;;;;;;;;;;5006001;28;20113;-69
2023/09/13 11:09:13;;;;;;;8.75;3.03;;;;;;;;;;5010841;28;20103;-69
2023/09/13 11:11:39;;;;;;;9.35;3.50;;;;;;;;;;5010731;28;20033;-70
2023/09/13 11:14:17;;;;;;;11.32;3.53;;;;;;;;;;5012458;28;20526;-68
2023/09/13 11:16:45;;;;;;;8.02;2.45;;;;;;;;;;5011414;28;20431;-69
2023/09/13 11:19:13;;;;;;;9.93;2.22;;;;;;;;;;5011583;28;20096;-68
2023/09/13 11:21:46;;;;;;;6.30;2.60;;;;;;;;;;5011558;28;20072;-69
2023/09/13 11:24:13;;;;;;;6.85;2.88;;;;;;;;;;5003257;28;20042;-69
2023/09/13 11:26:44;;;;;;;5.05;2.83;;;;;;;;;;5000201;28;20065;-67
2023/09/13 11:29:23;;;;;;;6.30;2.63;;;;;;;;;;5030724;28;20060;-69
2023/09/13 11:31:59;;;;;;;7.93;3.05;;;;;;;;;;5016184;28;20040;-69
2023/09/13 11:34:25;;;;;;;6.10;3.00;;;;;;;;;;5017933;28;20042;-69
2023/09/13 11:36:58;;;;;;;6.95;3.15;;;;;;;;;;4994491;28;20104;-69
2023/09/13 11:39:24;;;;;;;4.82;3.10;;;;;;;;;;5006952;28;20054;-69
2023/09/13 11:41:55;;;;;;;6.00;3.50;;;;;;;;;;4996488;28;20119;-70
2023/09/13 11:44:25;;;;;;;6.95;3.30;;;;;;;;;;5010480;28;20116;-68
2023/09/13 11:46:52;;;;;;;9.90;3.60;;;;;;;;;;5009834;28;20078;-70
2023/09/13 11:49:25;;;;;;;9.38;3.97;;;;;;;;;;4993350;28;20415;-69
2023/09/13 11:51:52;;;;;;;5.93;3.63;;;;;;;;;;5010810;28;20046;-68
2023/09/13 11:54:19;;;;;;;7.65;3.92;;;;;;;;;;5009824;28;20038;-68
2023/09/13 11:56:46;;;;;;;8.32;4.30;;;;;;;;;;5008962;28;20442;-69
2023/09/13 11:59:15;;;;;;;8.00;4.15;;;;;;;;;;5005667;28;20034;-70
2023/09/13 12:01:45;;;;;;;7.82;4.78;;;;;;;;;;5010440;28;20391;-69
2023/09/13 12:04:11;;;;;;;7.28;4.25;;;;;;;;;;5006836;28;20192;-68
2023/09/13 12:06:44;;;;;;;11.25;4.85;;;;;;;;;;5004432;28;20042;-70
2023/09/13 12:09:11;;;;;;;6.88;4.65;;;;;;;;;;5009780;28;20160;-69
2023/09/13 12:11:39;;;;;;;8.50;4.68;;;;;;;;;;5010499;28;20061;-69
2023/09/13 12:14:07;;;;;;;8.73;4.00;;;;;;;;;;5003260;28;20504;-70
2023/09/13 12:16:36;;;;;;;8.75;4.40;;;;;;;;;;5009516;28;20041;-70
2023/09/13 12:19:03;;;;;;;8.10;4.32;;;;;;;;;;5004662;28;20125;-69
2023/09/13 12:21:29;;;;;;;7.13;4.20;;;;;;;;;;5010095;28;20118;-69
2023/09/13 12:23:55;;;;;;;7.82;3.83;;;;;;;;;;5007837;28;20058;-69
2023/09/13 12:26:23;;;;;;;9.63;4.22;;;;;;;;;;5010248;28;20038;-69
2023/09/13 12:28:49;;;;;;;11.35;4.57;;;;;;;;;;5008537;28;20026;-70
2023/09/13 12:31:16;;;;;;;7.13;4.40;;;;;;;;;;5008913;28;20510;-70
2023/09/13 12:33:51;;;;;;;7.82;4.13;;;;;;;;;;5002416;28;20443;-68
2023/09/13 12:36:17;;;;;;;7.60;4.05;;;;;;;;;;5011174;28;20032;-69
2023/09/13 12:38:43;;;;;;;6.95;4.18;;;;;;;;;;5009827;28;20053;-69
2023/09/13 12:41:09;;;;;;;6.68;3.83;;;;;;;;;;5010697;28;20034;-69
2023/09/13 12:43:36;;;;;;;8.65;4.28;;;;;;;;;;5009425;28;20117;-69
2023/09/13 12:46:03;;;;;;;9.48;4.28;;;;;;;;;;5010581;28;20077;-68
2023/09/13 12:48:31;;;;;;;7.38;3.80;;;;;;;;;;5001058;28;20029;-70
2023/09/13 12:50:59;;;;;;;7.00;3.78;;;;;;;;;;5008593;28;20072;-69
2023/09/13 12:53:27;;;;;;;9.63;3.63;;;;;;;;;;5011195;28;20030;-69
2023/09/13 12:55:54;;;;;;;5.80;3.78;;;;;;;;;;5002251;28;20092;-70
2023/09/13 12:58:20;;;;;;;8.10;3.85;;;;;;;;;;5009079;28;20117;-69
2023/09/13 13:00:54;;;;;;;6.43;3.58;;;;;;;;;;5004943;28;20388;-69
2023/09/13 13:03:25;;;;;;;6.18;3.08;;;;;;;;;;5009581;28;20021;-69
2023/09/13 13:05:52;;;;;;;6.63;3.33;;;;;;;;;;5009306;28;20028;-71
2023/09/13 13:08:18;;;;;;;7.32;3.40;;;;;;;;;;5008881;28;20072;-69
2023/09/13 13:10:58;;;;;;;8.85;3.60;;;;;;;;;;5009141;28;20053;-69
2023/09/13 13:13:31;;;;;;;7.72;3.28;;;;;;;;;;5010063;28;20038;-70
2023/09/13 13:15:58;;;;;;;12.77;3.78;;;;;;;;;;5007168;28;20065;-69
2023/09/13 13:18:24;;;;;;;7.07;3.50;;;;;;;;;;5007929;28;20069;-69
2023/09/13 13:20:50;;;;;;;9.98;4.30;;;;;;;;;;5000965;28;20049;-70
2023/09/13 13:23:17;;;;;;;8.00;3.75;;;;;;;;;;4999068;28;20509;-70
2023/09/13 13:25:43;;;;;;;11.10;3.25;;;;;;;;;;5009221;28;20080;-70
2023/09/13 13:28:10;;;;;;;8.48;3.75;;;;;;;;;;5008580;28;20030;-69
2023/09/13 13:30:37;;;;;;;9.38;3.30;;;;;;;;;;5006323;28;20178;-70
2023/09/13 13:33:05;;;;;;;7.22;3.50;;;;;;;;;;5009562;28;20034;-69
2023/09/13 13:35:31;;;;;;;9.15;3.67;;;;;;;;;;4993898;28;20391;-68
2023/09/13 13:37:57;;;;;;;6.20;3.35;;;;;;;;;;4999145;28;20404;-69
2023/09/13 13:40:24;;;;;;;9.90;3.90;;;;;;;;;;5008391;28;20519;-70
2023/09/13 13:42:50;;;;;;;7.53;3.95;;;;;;;;;;5009045;28;20103;-70
2023/09/13 13:45:16;;;;;;;10.13;3.92;;;;;;;;;;4998702;28;20445;-69
2023/09/13 13:47:42;;;;;;;8.45;3.33;;;;;;;;;;4995841;28;20045;-70
2023/09/13 13:50:09;;;;;;;8.85;3.45;;;;;;;;;;5008214;28;20054;-69
2023/09/13 13:52:35;;;;;;;6.82;3.50;;;;;;;;;;5006187;28;20081;-69
2023/09/13 13:55:02;;;;;;;7.30;3.65;;;;;;;;;;4994423;28;20049;-71
2023/09/13 13:57:37;;;;;;;6.68;3.55;;;;;;;;;;5000974;28;20683;-69
2023/09/13 14:00:04;;;;;;;6.22;3.53;;;;;;;;;;4997014;28;20030;-68
2023/09/13 14:02:37;;;;;;;5.45;3.35;;;;;;;;;;5008767;28;20041;-69
2023/09/13 14:05:04;;;;;;;7.32;3.20;;;;;;;;;;4997565;28;20023;-69
2023/09/13 14:07:31;;;;;;;6.28;3.28;;;;;;;;;;5003980;28;20038;-70
2023/09/13 14:09:57;;;;;;;6.80;3.13;;;;;;;;;;4997666;28;21322;-70
2023/09/13 14:12:23;;;;;;;10.05;3.67;;;;;;;;;;5009636;28;20063;-69
2023/09/13 14:14:50;;;;;;;7.68;3.70;;;;;;;;;;5006565;28;20411;-70
2023/09/13 14:17:16;;;;;;;8.02;3.78;;;;;;;;;;5005997;28;20038;-70
2023/09/13 14:19:42;;;;;;;7.28;3.20;;;;;;;;;;5011934;28;20434;-69
2023/09/13 14:22:09;;;;;;;7.38;3.22;;;;;;;;;;5010998;28;20052;-69
2023/09/13 14:24:37;;;;;;;7.07;2.72;;;;;;;;;;5011871;28;20117;-70
2023/09/13 14:27:03;;;;;;;6.90;3.28;;;;;;;;;;5011137;28;20034;-69
2023/09/13 14:29:29;;;;;;;7.47;3.40;;;;;;;;;;5001276;28;20065;-69
2023/09/13 14:32:00;;;;;;;10.45;3.08;;;;;;;;;;5005308;28;20053;-68